createdAt,value
2018-02-19T00:00:39.679Z,45.80
2018-02-19T00:01:39.661Z,49.00
2018-02-19T00:02:39.633Z,49.40
2018-02-19T00:03:39.608Z,51.90
2018-02-19T00:04:39.594Z,53.50
2018-02-19T00:05:39.660Z,49.30
2018-02-19T00:06:39.539Z,52.40
2018-02-19T00:07:39.520Z,54.10
2018-02-19T00:08:39.503Z,48.30
2018-02-19T00:09:39.600Z,50.90
2018-02-19T00:10:39.459Z,50.30
2018-02-19T00:11:39.432Z,52.30
2018-02-19T00:12:39.410Z,52.40
2018-02-19T00:13:39.392Z,50.40
2018-02-19T00:14:39.369Z,53.90
2018-02-19T00:15:39.338Z,52.60
2018-02-19T00:16:39.333Z,49.70
2018-02-19T00:17:39.293Z,51.10
2018-02-19T00:18:39.271Z,52.30
2018-02-19T00:19:39.249Z,54.10
2018-02-19T00:20:39.228Z,48.50
2018-02-19T00:21:39.205Z,52.40
2018-02-19T00:22:39.187Z,54.60
2018-02-19T00:23:39.159Z,57.20
2018-02-19T00:24:39.139Z,49.80
2018-02-19T00:25:39.118Z,49.30
2018-02-19T00:26:39.095Z,52.90
2018-02-19T00:27:39.079Z,52.00
2018-02-19T00:28:39.050Z,56.10
2018-02-19T00:29:39.034Z,52.50
2018-02-19T00:30:39.009Z,54.00
2018-02-19T00:31:38.981Z,52.00
2018-02-19T00:32:38.965Z,53.50
2018-02-19T00:33:38.938Z,56.30
2018-02-19T00:34:38.916Z,51.00
2018-02-19T00:35:38.895Z,55.70
2018-02-19T00:36:38.873Z,54.10
2018-02-19T00:37:38.851Z,51.20
2018-02-19T00:38:38.829Z,54.20
2018-02-19T00:39:38.809Z,52.50
2018-02-19T00:40:38.779Z,59.00
2018-02-19T00:41:38.760Z,57.10
2018-02-19T00:42:38.739Z,55.20
2018-02-19T00:43:38.713Z,54.00
2018-02-19T00:44:38.692Z,58.80
2018-02-19T00:45:38.670Z,57.20
2018-02-19T00:46:38.648Z,56.00
2018-02-19T00:47:38.629Z,60.60
2018-02-19T00:48:38.602Z,56.70
2018-02-19T00:49:38.579Z,54.30
2018-02-19T00:50:38.557Z,60.10
2018-02-19T00:51:38.538Z,56.90
2018-02-19T00:52:38.518Z,53.00
2018-02-19T00:53:38.495Z,56.90
2018-02-19T00:54:38.469Z,57.40
2018-02-19T00:55:38.447Z,55.30
2018-02-19T00:56:38.433Z,52.20
2018-02-19T00:57:38.410Z,51.80
2018-02-19T00:58:38.380Z,53.70
2018-02-19T00:59:38.370Z,54.90
2018-02-19T01:00:38.341Z,51.50
2018-02-19T01:01:38.313Z,50.50
2018-02-19T01:02:38.290Z,53.70
2018-02-19T01:03:38.278Z,52.70
2018-02-19T01:04:38.251Z,49.10
2018-02-19T01:05:38.234Z,53.40
2018-02-19T01:06:38.200Z,51.80
2018-02-19T01:07:38.178Z,46.30
2018-02-19T01:08:38.162Z,49.60
2018-02-19T01:09:38.144Z,46.60
2018-02-19T01:10:38.113Z,48.00
2018-02-19T01:11:38.087Z,46.80
2018-02-19T01:12:38.068Z,49.60
2018-02-19T01:13:38.047Z,50.80
2018-02-19T01:14:38.020Z,45.50
2018-02-19T01:15:38.000Z,48.20
2018-02-19T01:16:37.978Z,48.10
2018-02-19T01:17:37.957Z,47.60
2018-02-19T01:18:37.939Z,56.00
2018-02-19T01:19:37.912Z,48.00
2018-02-19T01:20:37.888Z,50.00
2018-02-19T01:21:37.868Z,48.50
2018-02-19T01:22:37.845Z,47.40
2018-02-19T01:23:37.830Z,46.70
2018-02-19T01:24:37.800Z,43.80
2018-02-19T01:25:37.779Z,43.60
2018-02-19T01:26:37.761Z,48.80
2018-02-19T01:27:37.736Z,49.20
2018-02-19T01:28:37.709Z,46.40
2018-02-19T01:29:37.686Z,49.90
2018-02-19T01:30:37.667Z,49.60
2018-02-19T01:31:37.641Z,49.70
2018-02-19T01:32:37.620Z,48.10
2018-02-19T01:33:37.598Z,50.20
2018-02-19T01:34:37.578Z,49.10
2018-02-19T01:35:37.560Z,48.80
2018-02-19T01:36:37.530Z,51.80
2018-02-19T01:37:37.509Z,48.10
2018-02-19T01:38:37.485Z,48.70
2018-02-19T01:39:37.462Z,49.60
2018-02-19T01:40:37.440Z,49.10
2018-02-19T01:41:37.419Z,44.50
2018-02-19T01:42:37.398Z,49.60
2018-02-19T01:43:37.374Z,49.50
2018-02-19T01:44:37.351Z,46.60
2018-02-19T01:45:37.331Z,49.90
2018-02-19T01:46:37.311Z,44.70
2018-02-19T01:47:37.286Z,47.60
2018-02-19T01:48:37.263Z,45.60
2018-02-19T01:49:37.239Z,46.90
2018-02-19T01:50:37.226Z,48.80
2018-02-19T01:51:37.209Z,46.70
2018-02-19T01:52:37.182Z,43.60
2018-02-19T01:53:37.151Z,50.80
2018-02-19T01:54:37.129Z,41.90
2018-02-19T01:55:37.106Z,48.40
2018-02-19T01:56:37.081Z,49.00
2018-02-19T01:57:37.059Z,51.90
2018-02-19T01:58:37.040Z,45.90
2018-02-19T01:59:37.017Z,47.40
2018-02-19T02:00:36.998Z,50.20
2018-02-19T02:01:36.978Z,49.30
2018-02-19T02:02:36.949Z,49.40
2018-02-19T02:03:36.927Z,48.40
2018-02-19T02:04:36.909Z,50.90
2018-02-19T02:05:36.881Z,47.20
2018-02-19T02:06:36.859Z,44.50
2018-02-19T02:07:36.838Z,44.60
2018-02-19T02:08:36.819Z,45.00
2018-02-19T02:09:36.790Z,44.10
2018-02-19T02:10:36.768Z,46.90
2018-02-19T02:11:36.748Z,45.90
2018-02-19T02:12:36.768Z,39.50
2018-02-19T02:13:36.708Z,43.90
2018-02-19T02:14:36.728Z,45.20
2018-02-19T02:15:36.660Z,44.80
2018-02-19T02:16:36.740Z,46.40
2018-02-19T02:17:36.613Z,45.90
2018-02-19T02:18:36.590Z,47.80
2018-02-19T02:19:36.566Z,43.70
2018-02-19T02:20:36.555Z,44.70
2018-02-19T02:21:36.525Z,47.90
2018-02-19T02:22:36.609Z,47.60
2018-02-19T02:23:36.480Z,46.20
2018-02-19T02:24:36.529Z,47.00
2018-02-19T02:25:36.442Z,47.50
2018-02-19T02:26:36.421Z,45.40
2018-02-19T02:27:36.390Z,44.80
2018-02-19T02:28:36.464Z,48.10
2018-02-19T02:29:36.346Z,45.70
2018-02-19T02:30:36.326Z,45.90
2018-02-19T02:31:36.299Z,44.40
2018-02-19T02:32:36.580Z,45.90
2018-02-19T02:33:36.258Z,43.50
2018-02-19T02:34:36.340Z,44.10
2018-02-19T02:35:36.208Z,45.40
2018-02-19T02:36:36.304Z,44.70
2018-02-19T02:37:36.163Z,42.00
2018-02-19T02:38:36.160Z,45.10
2018-02-19T02:39:36.122Z,43.30
2018-02-19T02:40:36.102Z,42.40
2018-02-19T02:41:36.077Z,41.90
2018-02-19T02:42:36.111Z,44.10
2018-02-19T02:43:36.032Z,45.00
2018-02-19T02:44:36.060Z,42.30
2018-02-19T02:45:35.992Z,42.10
2018-02-19T02:46:35.963Z,44.70
2018-02-19T02:47:35.947Z,45.00
2018-02-19T02:48:35.922Z,44.80
2018-02-19T02:49:35.900Z,43.30
2018-02-19T02:50:35.875Z,43.80
2018-02-19T02:51:35.861Z,44.70
2018-02-19T02:52:35.830Z,42.30
2018-02-19T02:53:35.810Z,43.40
2018-02-19T02:54:35.789Z,45.70
2018-02-19T02:55:35.764Z,46.50
2018-02-19T02:56:35.738Z,45.90
2018-02-19T02:57:35.719Z,45.80
2018-02-19T02:58:35.705Z,46.40
2018-02-19T02:59:35.675Z,47.30
2018-02-19T03:00:35.663Z,44.10
2018-02-19T03:01:35.630Z,48.60
2018-02-19T03:02:35.602Z,45.10
2018-02-19T03:03:35.588Z,45.80
2018-02-19T03:04:35.560Z,49.00
2018-02-19T03:05:35.540Z,46.70
2018-02-19T03:06:35.523Z,48.20
2018-02-19T03:07:35.493Z,50.60
2018-02-19T03:08:35.471Z,49.50
2018-02-19T03:09:35.449Z,42.90
2018-02-19T03:10:35.432Z,48.60
2018-02-19T03:11:35.404Z,47.10
2018-02-19T03:12:35.381Z,44.30
2018-02-19T03:13:35.360Z,62.60
2018-02-19T03:14:35.339Z,64.80
2018-02-19T03:15:35.314Z,61.10
2018-02-19T03:16:35.289Z,56.30
2018-02-19T03:17:35.270Z,55.70
2018-02-19T03:18:35.249Z,52.70
2018-02-19T03:19:35.229Z,58.80
2018-02-19T03:20:35.196Z,55.30
2018-02-19T03:21:35.179Z,50.30
2018-02-19T03:22:35.159Z,47.10
2018-02-19T03:23:35.129Z,47.00
2018-02-19T03:24:35.105Z,47.50
2018-02-19T03:25:35.085Z,48.70
2018-02-19T03:26:35.069Z,51.20
2018-02-19T03:27:35.088Z,49.90
2018-02-19T03:28:35.017Z,44.50
2018-02-19T03:29:34.998Z,47.10
2018-02-19T03:30:34.970Z,45.10
2018-02-19T03:31:34.951Z,44.40
2018-02-19T03:32:34.931Z,46.50
2018-02-19T03:33:34.914Z,47.00
2018-02-19T03:34:34.892Z,45.00
2018-02-19T03:35:34.870Z,45.00
2018-02-19T03:36:34.840Z,45.90
2018-02-19T03:37:34.821Z,45.40
2018-02-19T03:38:34.788Z,45.50
2018-02-19T03:39:34.771Z,48.30
2018-02-19T03:40:34.751Z,43.90
2018-02-19T03:41:34.730Z,46.10
2018-02-19T03:42:34.697Z,44.30
2018-02-19T03:43:34.680Z,44.00
2018-02-19T03:44:34.655Z,39.40
2018-02-19T03:45:34.630Z,42.30
2018-02-19T03:46:34.610Z,43.10
2018-02-19T03:47:34.591Z,43.80
2018-02-19T03:48:34.568Z,48.50
2018-02-19T03:49:34.540Z,44.80
2018-02-19T03:50:34.519Z,44.30
2018-02-19T03:51:34.501Z,45.90
2018-02-19T03:52:34.474Z,46.50
2018-02-19T03:53:34.451Z,44.20
2018-02-19T03:54:34.424Z,44.80
2018-02-19T03:55:34.403Z,40.70
2018-02-19T03:56:34.390Z,40.80
2018-02-19T03:57:34.358Z,43.30
2018-02-19T03:58:34.339Z,47.50
2018-02-19T03:59:34.317Z,45.20
2018-02-19T04:00:34.289Z,37.70
2018-02-19T04:01:34.269Z,44.10
2018-02-19T04:02:34.249Z,44.80
2018-02-19T04:03:34.218Z,43.50
2018-02-19T04:04:34.200Z,46.80
2018-02-19T04:05:34.175Z,43.50
2018-02-19T04:06:34.154Z,47.50
2018-02-19T04:07:34.130Z,45.00
2018-02-19T04:08:34.107Z,44.70
2018-02-19T04:09:34.086Z,47.00
2018-02-19T04:10:34.063Z,43.90
2018-02-19T04:11:34.042Z,50.00
2018-02-19T04:12:34.015Z,40.70
2018-02-19T04:13:33.996Z,45.20
2018-02-19T04:14:33.969Z,45.50
2018-02-19T04:15:33.955Z,42.80
2018-02-19T04:16:33.929Z,45.20
2018-02-19T04:17:33.905Z,46.50
2018-02-19T04:18:33.879Z,42.80
2018-02-19T04:19:33.858Z,46.50
2018-02-19T04:20:33.843Z,42.00
2018-02-19T04:21:33.810Z,43.00
2018-02-19T04:22:33.790Z,46.20
2018-02-19T04:23:33.769Z,47.00
2018-02-19T04:24:33.745Z,49.50
2018-02-19T04:25:33.720Z,43.50
2018-02-19T04:26:33.704Z,49.00
2018-02-19T04:27:33.683Z,44.90
2018-02-19T04:28:33.654Z,44.10
2018-02-19T04:29:33.629Z,41.80
2018-02-19T04:30:33.613Z,45.70
2018-02-19T04:31:33.591Z,45.60
2018-02-19T04:32:33.560Z,43.60
2018-02-19T04:33:33.541Z,43.70
2018-02-19T04:34:33.515Z,47.40
2018-02-19T04:35:33.497Z,44.80
2018-02-19T04:36:33.471Z,48.50
2018-02-19T04:37:33.496Z,41.20
2018-02-19T04:38:33.432Z,44.60
2018-02-19T04:39:33.457Z,44.50
2018-02-19T04:40:33.381Z,46.30
2018-02-19T04:41:33.457Z,45.90
2018-02-19T04:42:33.330Z,42.80
2018-02-19T04:43:33.362Z,45.20
2018-02-19T04:44:33.291Z,45.40
2018-02-19T04:45:33.420Z,42.20
2018-02-19T04:46:33.243Z,43.40
2018-02-19T04:47:33.319Z,44.00
2018-02-19T04:48:33.202Z,44.50
2018-02-19T04:49:33.274Z,44.20
2018-02-19T04:50:33.157Z,48.30
2018-02-19T04:51:33.228Z,48.90
2018-02-19T04:52:33.108Z,45.90
2018-02-19T04:53:33.237Z,42.50
2018-02-19T04:54:33.065Z,47.00
2018-02-19T04:55:33.044Z,47.10
2018-02-19T04:56:33.019Z,47.00
2018-02-19T04:57:32.999Z,48.80
2018-02-19T04:58:32.971Z,47.40
2018-02-19T04:59:33.051Z,50.90
2018-02-19T05:00:32.931Z,49.70
2018-02-19T05:01:32.909Z,48.10
2018-02-19T05:02:32.879Z,43.70
2018-02-19T05:03:33.108Z,46.70
2018-02-19T05:04:32.832Z,45.80
2018-02-19T05:05:32.817Z,48.70
2018-02-19T05:06:32.788Z,51.60
2018-02-19T05:07:32.765Z,49.20
2018-02-19T05:08:32.750Z,46.70
2018-02-19T05:09:32.728Z,45.80
2018-02-19T05:10:32.699Z,48.70
2018-02-19T05:11:32.674Z,44.80
2018-02-19T05:12:32.653Z,46.40
2018-02-19T05:13:32.629Z,46.70
2018-02-19T05:14:32.604Z,48.20
2018-02-19T05:15:32.584Z,50.40
2018-02-19T05:16:32.561Z,54.10
2018-02-19T05:17:32.541Z,49.30
2018-02-19T05:18:32.517Z,50.10
2018-02-19T05:19:32.499Z,52.40
2018-02-19T05:20:32.470Z,49.60
2018-02-19T05:21:32.448Z,52.00
2018-02-19T05:22:32.425Z,48.90
2018-02-19T05:23:32.408Z,50.80
2018-02-19T05:24:32.377Z,51.30
2018-02-19T05:25:32.359Z,56.70
2018-02-19T05:26:32.339Z,48.90
2018-02-19T05:27:32.310Z,54.40
2018-02-19T05:28:32.290Z,53.40
2018-02-19T05:29:32.272Z,52.90
2018-02-19T05:30:32.240Z,52.80
2018-02-19T05:31:32.220Z,50.50
2018-02-19T05:32:32.197Z,53.30
2018-02-19T05:33:32.186Z,53.80
2018-02-19T05:34:32.159Z,53.70
2018-02-19T05:35:32.137Z,57.70
2018-02-19T05:36:32.104Z,55.40
2018-02-19T05:37:32.086Z,57.40
2018-02-19T05:38:32.064Z,56.80
2018-02-19T05:39:32.040Z,57.10
2018-02-19T05:40:32.019Z,54.50
2018-02-19T05:41:31.999Z,55.80
2018-02-19T05:42:31.969Z,53.40
2018-02-19T05:43:31.947Z,57.70
2018-02-19T05:44:31.926Z,63.60
2018-02-19T05:45:31.899Z,53.40
2018-02-19T05:46:31.875Z,53.70
2018-02-19T05:47:31.858Z,52.60
2018-02-19T05:48:31.832Z,59.90
2018-02-19T05:49:31.812Z,62.50
2018-02-19T05:50:31.789Z,57.60
2018-02-19T05:51:31.769Z,58.00
2018-02-19T05:52:31.741Z,54.00
2018-02-19T05:53:31.720Z,54.00
2018-02-19T05:54:31.694Z,52.70
2018-02-19T05:55:31.672Z,56.70
2018-02-19T05:56:31.651Z,55.30
2018-02-19T05:57:31.626Z,49.20
2018-02-19T05:58:31.600Z,54.50
2018-02-19T05:59:31.594Z,51.70
2018-02-19T06:00:31.560Z,55.60
2018-02-19T06:01:31.534Z,57.70
2018-02-19T06:02:31.516Z,59.60
2018-02-19T06:03:31.490Z,51.80
2018-02-19T06:04:31.469Z,54.20
2018-02-19T06:05:31.443Z,56.50
2018-02-19T06:06:31.419Z,51.70
2018-02-19T06:07:31.396Z,52.90
2018-02-19T06:08:31.378Z,52.80
2018-02-19T06:09:31.354Z,51.50
2018-02-19T06:10:31.330Z,48.20
2018-02-19T06:11:31.355Z,54.40
2018-02-19T06:12:31.284Z,49.20
2018-02-19T06:13:31.260Z,55.30
2018-02-19T06:14:31.241Z,54.50
2018-02-19T06:15:31.225Z,53.40
2018-02-19T06:16:31.198Z,51.70
2018-02-19T06:17:31.170Z,47.70
2018-02-19T06:18:31.151Z,49.70
2018-02-19T06:19:31.123Z,52.20
2018-02-19T06:20:31.100Z,53.90
2018-02-19T06:21:31.080Z,54.00
2018-02-19T06:22:31.054Z,49.10
2018-02-19T06:23:31.033Z,50.80
2018-02-19T06:24:31.007Z,54.00
2018-02-19T06:25:30.984Z,51.40
2018-02-19T06:26:30.963Z,52.70
2018-02-19T06:27:30.940Z,54.30
2018-02-19T06:28:30.916Z,57.20
2018-02-19T06:29:30.896Z,51.20
2018-02-19T06:30:30.911Z,54.10
2018-02-19T06:31:30.848Z,55.90
2018-02-19T06:32:30.826Z,52.30
2018-02-19T06:33:30.802Z,52.80
2018-02-19T06:34:30.778Z,51.90
2018-02-19T06:35:30.754Z,53.00
2018-02-19T06:36:30.732Z,54.80
2018-02-19T06:37:30.709Z,50.30
2018-02-19T06:38:30.690Z,63.00
2018-02-19T06:39:30.668Z,56.90
2018-02-19T06:40:30.642Z,53.20
2018-02-19T06:41:30.624Z,61.00
2018-02-19T06:42:30.597Z,53.80
2018-02-19T06:43:30.573Z,51.10
2018-02-19T06:44:30.549Z,57.80
2018-02-19T06:45:30.524Z,57.90
2018-02-19T06:46:30.502Z,56.20
2018-02-19T06:47:30.479Z,56.60
2018-02-19T06:48:30.456Z,60.90
2018-02-19T06:49:30.433Z,53.00
2018-02-19T06:50:30.410Z,57.60
2018-02-19T06:51:30.390Z,53.90
2018-02-19T06:52:30.367Z,55.50
2018-02-19T06:53:30.346Z,54.00
2018-02-19T06:54:30.319Z,52.60
2018-02-19T06:55:30.296Z,52.70
2018-02-19T06:56:30.329Z,55.70
2018-02-19T06:57:30.260Z,58.70
2018-02-19T06:58:30.380Z,53.40
2018-02-19T06:59:30.202Z,53.00
2018-02-19T07:00:30.281Z,59.40
2018-02-19T07:01:30.159Z,57.00
2018-02-19T07:02:30.136Z,53.40
2018-02-19T07:03:30.121Z,53.10
2018-02-19T07:04:30.092Z,59.90
2018-02-19T07:05:30.070Z,56.90
2018-02-19T07:06:30.047Z,55.70
2018-02-19T07:07:30.022Z,57.90
2018-02-19T07:08:30.129Z,58.70
2018-02-19T07:09:29.977Z,58.60
2018-02-19T07:10:29.955Z,58.40
2018-02-19T07:11:29.932Z,59.20
2018-02-19T07:12:29.910Z,61.90
2018-02-19T07:13:29.884Z,61.20
2018-02-19T07:14:29.874Z,58.90
2018-02-19T07:15:29.839Z,59.40
2018-02-19T07:16:29.821Z,60.40
2018-02-19T07:17:29.791Z,57.20
2018-02-19T07:18:29.772Z,57.50
2018-02-19T07:19:29.749Z,57.80
2018-02-19T07:20:29.726Z,62.40
2018-02-19T07:21:29.695Z,58.90
2018-02-19T07:22:29.682Z,53.30
2018-02-19T07:23:29.661Z,56.20
2018-02-19T07:24:29.629Z,54.60
2018-02-19T07:25:29.610Z,62.40
2018-02-19T07:26:29.590Z,61.30
2018-02-19T07:27:29.561Z,64.50
2018-02-19T07:28:29.538Z,57.60
2018-02-19T07:29:29.513Z,63.20
2018-02-19T07:30:29.551Z,62.80
2018-02-19T07:31:29.469Z,56.70
2018-02-19T07:32:29.448Z,56.70
2018-02-19T07:33:29.431Z,54.40
2018-02-19T07:34:29.400Z,58.10
2018-02-19T07:35:29.378Z,62.40
2018-02-19T07:36:29.362Z,55.30
2018-02-19T07:37:29.338Z,59.70
2018-02-19T07:38:29.314Z,60.90
2018-02-19T07:39:29.286Z,56.20
2018-02-19T07:40:29.270Z,63.40
2018-02-19T07:41:29.241Z,60.40
2018-02-19T07:42:29.221Z,54.20
2018-02-19T07:43:29.201Z,57.30
2018-02-19T07:44:29.181Z,55.00
2018-02-19T07:45:29.151Z,60.50
2018-02-19T07:46:29.126Z,59.60
2018-02-19T07:47:29.108Z,56.60
2018-02-19T07:48:29.090Z,61.10
2018-02-19T07:49:29.060Z,58.90
2018-02-19T07:50:29.039Z,56.50
2018-02-19T07:51:29.022Z,60.30
2018-02-19T07:52:28.990Z,62.30
2018-02-19T07:53:28.971Z,58.70
2018-02-19T07:54:28.951Z,60.80
2018-02-19T07:55:28.942Z,56.00
2018-02-19T07:56:28.905Z,60.20
2018-02-19T07:57:28.889Z,61.80
2018-02-19T07:58:28.864Z,57.90
2018-02-19T07:59:28.843Z,58.50
2018-02-19T08:00:28.825Z,58.40
2018-02-19T08:01:28.795Z,54.40
2018-02-19T08:02:28.782Z,58.40
2018-02-19T08:03:28.761Z,53.90
2018-02-19T08:04:28.730Z,55.20
2018-02-19T08:05:28.713Z,60.10
2018-02-19T08:06:28.688Z,52.20
2018-02-19T08:07:28.667Z,53.50
2018-02-19T08:08:28.645Z,51.10
2018-02-19T08:09:28.632Z,51.70
2018-02-19T08:10:28.604Z,56.80
2018-02-19T08:11:28.582Z,52.80
2018-02-19T08:12:28.625Z,55.90
2018-02-19T08:13:28.543Z,54.60
2018-02-19T08:14:28.521Z,55.10
2018-02-19T08:15:28.495Z,54.70
2018-02-19T08:16:28.475Z,52.10
2018-02-19T08:17:28.454Z,51.00
2018-02-19T08:18:28.430Z,54.30
2018-02-19T08:19:28.420Z,54.80
2018-02-19T08:20:28.392Z,52.90
2018-02-19T08:21:28.370Z,52.60
2018-02-19T08:22:28.351Z,53.30
2018-02-19T08:23:28.331Z,54.60
2018-02-19T08:24:28.312Z,53.30
2018-02-19T08:25:28.288Z,52.90
2018-02-19T08:26:28.274Z,52.60
2018-02-19T08:27:28.251Z,52.00
2018-02-19T08:28:28.231Z,49.70
2018-02-19T08:29:28.216Z,50.60
2018-02-19T08:30:28.190Z,54.80
2018-02-19T08:31:28.179Z,51.90
2018-02-19T08:32:28.147Z,49.30
2018-02-19T08:33:28.128Z,49.60
2018-02-19T08:34:28.104Z,50.10
2018-02-19T08:35:28.085Z,51.80
2018-02-19T08:36:28.063Z,49.70
2018-02-19T08:37:28.046Z,52.80
2018-02-19T08:38:28.026Z,47.70
2018-02-19T08:39:28.011Z,46.90
2018-02-19T08:40:27.990Z,50.80
2018-02-19T08:41:27.979Z,49.10
2018-02-19T08:42:27.951Z,47.70
2018-02-19T08:43:27.941Z,48.00
2018-02-19T08:44:27.914Z,48.00
2018-02-19T08:45:27.892Z,48.80
2018-02-19T08:46:27.873Z,48.60
2018-02-19T08:47:27.863Z,46.90
2018-02-19T08:48:27.879Z,46.40
2018-02-19T08:49:27.820Z,47.40
2018-02-19T08:50:27.847Z,45.70
2018-02-19T08:51:27.792Z,45.10
2018-02-19T08:52:27.768Z,44.40
2018-02-19T08:53:27.744Z,48.40
2018-02-19T08:54:27.726Z,46.10
2018-02-19T08:55:27.709Z,44.30
2018-02-19T08:56:27.689Z,48.30
2018-02-19T08:57:27.676Z,49.40
2018-02-19T08:58:27.651Z,44.40
2018-02-19T08:59:27.676Z,45.00
2018-02-19T09:00:27.610Z,44.70
2018-02-19T09:01:27.592Z,48.90
2018-02-19T09:02:27.581Z,47.40
2018-02-19T09:03:27.561Z,45.20
2018-02-19T09:04:27.550Z,46.10
2018-02-19T09:05:27.519Z,47.70
2018-02-19T09:06:27.503Z,44.50
2018-02-19T09:07:27.481Z,48.70
2018-02-19T09:08:27.462Z,46.00
2018-02-19T09:09:27.451Z,48.10
2018-02-19T09:10:27.431Z,46.30
2018-02-19T09:11:27.410Z,46.20
2018-02-19T09:12:27.388Z,46.30
2018-02-19T09:13:27.372Z,43.80
2018-02-19T09:14:27.348Z,46.70
2018-02-19T09:15:27.331Z,46.70
2018-02-19T09:16:27.311Z,46.50
2018-02-19T09:17:27.332Z,45.60
2018-02-19T09:18:27.270Z,47.90
2018-02-19T09:19:27.252Z,43.90
2018-02-19T09:20:27.231Z,45.80
2018-02-19T09:21:27.210Z,46.20
2018-02-19T09:22:27.193Z,44.60
2018-02-19T09:23:27.185Z,44.40
2018-02-19T09:24:27.157Z,48.10
2018-02-19T09:25:27.135Z,45.90
2018-02-19T09:26:27.114Z,45.70
2018-02-19T09:27:27.099Z,49.80
2018-02-19T09:28:27.076Z,43.50
2018-02-19T09:29:27.061Z,47.80
2018-02-19T09:30:27.041Z,43.00
2018-02-19T09:31:27.015Z,42.80
2018-02-19T09:32:27.005Z,45.00
2018-02-19T09:33:26.976Z,43.90
2018-02-19T09:34:26.960Z,41.70
2018-02-19T09:35:26.942Z,44.70
2018-02-19T09:36:26.926Z,41.90
2018-02-19T09:37:26.900Z,46.70
2018-02-19T09:38:26.878Z,44.50
2018-02-19T09:39:26.865Z,40.90
2018-02-19T09:40:27.142Z,44.00
2018-02-19T09:41:26.820Z,40.70
2018-02-19T09:42:26.801Z,43.50
2018-02-19T09:43:26.787Z,44.40
2018-02-19T09:44:26.769Z,42.70
2018-02-19T09:45:26.755Z,40.50
2018-02-19T09:46:26.727Z,42.90
2018-02-19T09:47:26.710Z,41.90
2018-02-19T09:48:26.692Z,43.20
2018-02-19T09:49:26.672Z,39.20
2018-02-19T09:50:26.650Z,40.50
2018-02-19T09:51:26.634Z,44.10
2018-02-19T09:52:26.615Z,41.70
2018-02-19T09:53:26.605Z,41.70
2018-02-19T09:54:26.578Z,39.70
2018-02-19T09:55:26.555Z,40.60
2018-02-19T09:56:26.543Z,42.30
2018-02-19T09:57:26.571Z,41.00
2018-02-19T09:58:26.501Z,45.00
2018-02-19T09:59:26.482Z,42.70
2018-02-19T10:00:26.464Z,40.30
2018-02-19T10:01:26.443Z,38.90
2018-02-19T10:02:26.428Z,38.70
2018-02-19T10:03:26.406Z,42.20
2018-02-19T10:04:26.389Z,41.00
2018-02-19T10:05:26.373Z,41.70
2018-02-19T10:06:26.351Z,40.20
2018-02-19T10:07:26.335Z,37.30
2018-02-19T10:08:26.313Z,38.10
2018-02-19T10:09:26.299Z,44.20
2018-02-19T10:10:26.279Z,36.20
2018-02-19T10:11:26.265Z,41.00
2018-02-19T10:12:26.243Z,38.60
2018-02-19T10:13:26.236Z,42.30
2018-02-19T10:14:26.211Z,41.90
2018-02-19T10:15:26.199Z,40.10
2018-02-19T10:16:26.175Z,42.10
2018-02-19T10:17:26.153Z,36.90
2018-02-19T10:18:26.138Z,36.60
2018-02-19T10:19:26.117Z,37.20
2018-02-19T10:20:26.096Z,37.90
2018-02-19T10:21:26.082Z,38.10
2018-02-19T10:22:26.061Z,41.80
2018-02-19T10:23:26.051Z,38.70
2018-02-19T10:24:26.034Z,41.20
2018-02-19T10:25:26.010Z,44.10
2018-02-19T10:26:25.989Z,40.20
2018-02-19T10:27:25.970Z,41.80
2018-02-19T10:28:25.951Z,37.70
2018-02-19T10:29:25.932Z,39.00
2018-02-19T10:30:25.913Z,40.30
2018-02-19T10:31:25.900Z,40.20
2018-02-19T10:32:25.877Z,42.00
2018-02-19T10:33:25.857Z,38.50
2018-02-19T10:34:25.838Z,38.80
2018-02-19T10:35:25.819Z,38.00
2018-02-19T10:36:25.810Z,38.90
2018-02-19T10:37:25.785Z,41.10
2018-02-19T10:38:25.763Z,41.30
2018-02-19T10:39:25.745Z,40.40
2018-02-19T10:40:25.730Z,36.30
2018-02-19T10:41:25.702Z,36.50
2018-02-19T10:42:25.694Z,42.00
2018-02-19T10:43:25.668Z,37.20
2018-02-19T10:44:25.647Z,38.80
2018-02-19T10:45:25.631Z,41.20
2018-02-19T10:46:25.611Z,40.40
2018-02-19T10:47:25.602Z,39.80
2018-02-19T10:48:25.620Z,39.00
2018-02-19T10:49:25.552Z,39.10
2018-02-19T10:50:25.544Z,38.10
2018-02-19T10:51:25.527Z,40.70
2018-02-19T10:52:25.502Z,40.40
2018-02-19T10:53:25.488Z,38.80
2018-02-19T10:54:25.470Z,38.90
2018-02-19T10:55:25.449Z,37.20
2018-02-19T10:56:25.429Z,38.20
2018-02-19T10:57:25.407Z,39.60
2018-02-19T10:58:25.390Z,39.10
2018-02-19T10:59:25.370Z,42.10
2018-02-19T11:00:25.348Z,38.70
2018-02-19T11:01:25.331Z,42.30
2018-02-19T11:02:25.312Z,40.50
2018-02-19T11:03:25.297Z,40.60
2018-02-19T11:04:25.272Z,40.60
2018-02-19T11:05:25.255Z,38.30
2018-02-19T11:06:25.236Z,40.10
2018-02-19T11:07:25.222Z,41.20
2018-02-19T11:08:25.200Z,41.80
2018-02-19T11:09:25.182Z,42.60
2018-02-19T11:10:25.167Z,44.00
2018-02-19T11:11:25.142Z,44.30
2018-02-19T11:12:25.140Z,41.60
2018-02-19T11:13:25.160Z,43.70
2018-02-19T11:14:25.095Z,43.70
2018-02-19T11:15:25.072Z,44.40
2018-02-19T11:16:25.050Z,46.00
2018-02-19T11:17:25.044Z,45.80
2018-02-19T11:18:25.021Z,43.20
2018-02-19T11:19:25.002Z,43.10
2018-02-19T11:20:24.978Z,42.10
2018-02-19T11:21:24.955Z,45.20
2018-02-19T11:22:24.938Z,43.70
2018-02-19T11:23:24.920Z,42.70
2018-02-19T11:24:24.898Z,43.00
2018-02-19T11:25:24.892Z,43.50
2018-02-19T11:26:24.867Z,41.70
2018-02-19T11:27:24.849Z,44.10
2018-02-19T11:28:24.840Z,44.40
2018-02-19T11:29:24.810Z,42.30
2018-02-19T11:30:24.801Z,44.20
2018-02-19T11:31:24.773Z,43.20
2018-02-19T11:32:24.758Z,44.10
2018-02-19T11:33:24.738Z,45.70
2018-02-19T11:34:24.763Z,42.60
2018-02-19T11:35:24.699Z,44.90
2018-02-19T11:36:24.679Z,45.80
2018-02-19T11:37:24.660Z,44.40
2018-02-19T11:38:24.638Z,43.50
2018-02-19T11:39:24.635Z,48.70
2018-02-19T11:40:24.602Z,44.20
2018-02-19T11:41:24.591Z,45.70
2018-02-19T11:42:24.566Z,64.70
2018-02-19T11:43:24.548Z,46.40
2018-02-19T11:44:24.533Z,48.30
2018-02-19T11:45:24.510Z,75.30
2018-02-19T11:46:24.489Z,59.30
2018-02-19T11:47:24.472Z,46.00
2018-02-19T11:48:24.452Z,46.90
2018-02-19T11:49:24.434Z,43.20
2018-02-19T11:50:24.418Z,41.40
2018-02-19T11:51:24.401Z,47.50
2018-02-19T11:52:24.381Z,50.30
2018-02-19T11:53:24.364Z,52.60
2018-02-19T11:54:24.340Z,56.30
2018-02-19T11:55:24.326Z,52.90
2018-02-19T11:56:24.304Z,52.20
2018-02-19T11:57:24.293Z,59.70
2018-02-19T11:58:24.268Z,62.60
2018-02-19T11:59:24.254Z,40.90
2018-02-19T12:00:24.231Z,40.30
2018-02-19T12:01:24.222Z,40.10
2018-02-19T12:02:24.197Z,41.80
2018-02-19T12:03:24.180Z,41.60
2018-02-19T12:04:24.160Z,39.50
2018-02-19T12:05:24.150Z,42.30
2018-02-19T12:06:24.132Z,41.30
2018-02-19T12:07:24.106Z,41.10
2018-02-19T12:08:24.093Z,42.50
2018-02-19T12:09:24.071Z,39.70
2018-02-19T12:10:24.056Z,42.20
2018-02-19T12:11:24.032Z,39.10
2018-02-19T12:12:24.026Z,41.90
2018-02-19T12:13:24.001Z,39.70
2018-02-19T12:14:23.976Z,41.80
2018-02-19T12:15:23.963Z,40.50
2018-02-19T12:16:23.946Z,39.10
2018-02-19T12:17:23.930Z,40.90
2018-02-19T12:18:23.916Z,38.50
2018-02-19T12:19:23.890Z,40.10
2018-02-19T12:20:23.870Z,43.20
2018-02-19T12:21:23.863Z,39.80
2018-02-19T12:22:23.840Z,40.00
2018-02-19T12:23:23.823Z,40.00
2018-02-19T12:24:23.804Z,39.40
2018-02-19T12:25:23.791Z,41.80
2018-02-19T12:26:23.763Z,38.60
2018-02-19T12:27:23.747Z,40.20
2018-02-19T12:28:23.724Z,39.10
2018-02-19T12:29:23.710Z,39.10
2018-02-19T12:30:23.690Z,36.50
2018-02-19T12:31:23.674Z,37.80
2018-02-19T12:32:23.656Z,37.60
2018-02-19T12:33:23.635Z,38.20
2018-02-19T12:34:23.650Z,36.00
2018-02-19T12:35:23.598Z,41.20
2018-02-19T12:36:23.580Z,43.50
2018-02-19T12:37:23.570Z,40.70
2018-02-19T12:38:23.550Z,40.70
2018-02-19T12:39:23.536Z,40.10
2018-02-19T12:40:23.507Z,37.50
2018-02-19T12:41:23.501Z,40.40
2018-02-19T12:42:23.473Z,41.50
2018-02-19T12:43:23.456Z,38.60
2018-02-19T12:44:23.444Z,38.40
2018-02-19T12:45:23.416Z,41.60
2018-02-19T12:46:23.403Z,40.50
2018-02-19T12:47:23.381Z,37.50
2018-02-19T12:48:23.362Z,34.60
2018-02-19T12:49:23.352Z,36.80
2018-02-19T12:50:23.334Z,37.50
2018-02-19T12:51:23.311Z,38.10
2018-02-19T12:52:23.288Z,37.70